Time;durP1;ratioP1;P1;durP2;ratioP2;P2;SDS_P1;SDS_P2;PMS_P1;PMS_P2;Temp;Humidity;BMP_temperature;BMP_pressure;BME280_temperature;BME280_humidity;BME280_pressure;Samples;Min_cycle;Max_cycle;Signal;HPM_P1;HPM_P2
2022/05/26 00:00:27;;;;;;;33.97;9.63;;;;;;;;;;4361940;32;20124;-81
2022/05/26 00:02:52;;;;;;;34.17;10.23;;;;;;;;;;4359847;33;20054;-80
2022/05/26 00:05:18;;;;;;;29.75;10.90;;;;;;;;;;4361448;32;20042;-81
2022/05/26 00:07:43;;;;;;;27.23;10.00;;;;;;;;;;4361597;32;20119;-82
2022/05/26 00:10:09;;;;;;;35.38;10.25;;;;;;;;;;4360374;32;20158;-83
2022/05/26 00:12:34;;;;;;;30.67;11.65;;;;;;;;;;4361150;32;20361;-81
2022/05/26 00:15:00;;;;;;;34.55;10.68;;;;;;;;;;4362161;32;20059;-78
2022/05/26 00:17:25;;;;;;;33.78;10.10;;;;;;;;;;4361000;32;20053;-83
2022/05/26 00:19:50;;;;;;;30.33;10.13;;;;;;;;;;4361401;32;20051;-82
2022/05/26 00:22:15;;;;;;;34.65;9.63;;;;;;;;;;4361884;32;20088;-82
2022/05/26 00:24:41;;;;;;;24.80;10.00;;;;;;;;;;4360449;32;20027;-78
2022/05/26 00:27:06;;;;;;;37.08;9.77;;;;;;;;;;4346901;32;20024;-80
2022/05/26 00:29:34;;;;;;;38.53;10.15;;;;;;;;;;4360416;32;20032;-82
2022/05/26 00:31:59;;;;;;;28.15;9.30;;;;;;;;;;4360430;32;20106;-83
2022/05/26 00:34:24;;;;;;;34.45;10.32;;;;;;;;;;4360454;32;20023;-82
2022/05/26 00:36:49;;;;;;;32.92;9.77;;;;;;;;;;4360258;32;20062;-82
2022/05/26 00:39:19;;;;;;;32.38;10.38;;;;;;;;;;4382656;27;20031;-68
2022/05/26 00:41:47;;;;;;;27.02;8.32;;;;;;;;;;4384850;32;20094;-69
2022/05/26 00:44:13;;;;;;;39.88;9.20;;;;;;;;;;4390593;32;20098;-69
2022/05/26 00:46:41;;;;;;;32.67;9.63;;;;;;;;;;4363404;32;20039;-69
2022/05/26 00:49:09;;;;;;;24.77;7.53;;;;;;;;;;4374143;32;20026;-69
2022/05/26 00:51:36;;;;;;;39.30;9.20;;;;;;;;;;4381257;32;20026;-68
2022/05/26 00:54:03;;;;;;;36.42;7.68;;;;;;;;;;4376463;32;20062;-69
2022/05/26 00:56:48;;;;;;;26.85;7.25;;;;;;;;;;4383598;32;20027;-70
2022/05/26 00:59:17;;;;;;;39.88;8.88;;;;;;;;;;4378832;32;20464;-69
2022/05/26 01:01:42;;;;;;;39.25;7.80;;;;;;;;;;4388707;32;20019;-69
2022/05/26 01:04:10;;;;;;;39.53;8.63;;;;;;;;;;4367076;32;20046;-69
2022/05/26 01:06:45;;;;;;;31.08;7.57;;;;;;;;;;4374869;32;20053;-70
2022/05/26 01:09:11;;;;;;;32.90;7.03;;;;;;;;;;4380052;32;20409;-70
2022/05/26 01:11:37;;;;;;;30.35;7.18;;;;;;;;;;4381215;32;20023;-69
2022/05/26 01:14:03;;;;;;;35.08;7.95;;;;;;;;;;4373126;32;20054;-69
2022/05/26 01:16:34;;;;;;;36.90;7.00;;;;;;;;;;4374778;32;20096;-69
2022/05/26 01:19:02;;;;;;;31.40;7.85;;;;;;;;;;4381828;32;20057;-69
2022/05/26 01:21:33;;;;;;;33.15;8.18;;;;;;;;;;4374114;32;20055;-69
2022/05/26 01:24:17;;;;;;;37.05;7.82;;;;;;;;;;4384526;32;20023;-69
2022/05/26 01:26:51;;;;;;;30.80;8.18;;;;;;;;;;4386431;32;20031;-68
2022/05/26 01:29:35;;;;;;;34.38;7.93;;;;;;;;;;4376749;32;20361;-69
2022/05/26 01:32:08;;;;;;;34.10;7.10;;;;;;;;;;4376534;32;20073;-67
2022/05/26 01:34:40;;;;;;;30.58;8.07;;;;;;;;;;4375434;32;20086;-69
2022/05/26 01:37:08;;;;;;;39.45;7.47;;;;;;;;;;4375818;32;20027;-70
2022/05/26 01:39:33;;;;;;;30.62;7.10;;;;;;;;;;4380298;32;20035;-69
2022/05/26 01:42:07;;;;;;;34.95;6.53;;;;;;;;;;4371946;32;20031;-69
2022/05/26 01:44:41;;;;;;;36.67;8.02;;;;;;;;;;4347653;33;20170;-69
2022/05/26 01:47:13;;;;;;;36.70;8.85;;;;;;;;;;4378885;32;20054;-69
2022/05/26 01:49:41;;;;;;;34.70;6.80;;;;;;;;;;4369188;32;20086;-69
2022/05/26 01:52:17;;;;;;;33.67;7.60;;;;;;;;;;4384798;32;20416;-69
2022/05/26 01:54:52;;;;;;;29.52;6.37;;;;;;;;;;4376300;32;20054;-70
2022/05/26 01:57:25;;;;;;;32.35;7.25;;;;;;;;;;4378859;32;20062;-68
2022/05/26 01:59:52;;;;;;;44.15;8.02;;;;;;;;;;4359602;32;20433;-68
2022/05/26 02:02:28;;;;;;;32.33;6.22;;;;;;;;;;4389788;32;20170;-69
2022/05/26 02:04:58;;;;;;;35.90;8.27;;;;;;;;;;4391297;32;20460;-69
2022/05/26 02:07:26;;;;;;;32.00;6.30;;;;;;;;;;4385020;32;20023;-69
2022/05/26 02:09:52;;;;;;;40.22;7.15;;;;;;;;;;4383146;32;20446;-68
2022/05/26 02:12:26;;;;;;;25.25;5.87;;;;;;;;;;4376980;32;20138;-69
2022/05/26 02:14:54;;;;;;;27.27;6.10;;;;;;;;;;4391835;32;20027;-68
2022/05/26 02:17:22;;;;;;;25.48;7.05;;;;;;;;;;4391941;32;20027;-69
2022/05/26 02:19:49;;;;;;;35.55;5.80;;;;;;;;;;4386564;32;20061;-69
2022/05/26 02:22:17;;;;;;;35.03;6.55;;;;;;;;;;4386835;32;20026;-68
2022/05/26 02:25:03;;;;;;;29.87;6.37;;;;;;;;;;4392552;32;20049;-68
2022/05/26 02:27:28;;;;;;;25.23;5.32;;;;;;;;;;4385814;32;20059;-69
2022/05/26 02:29:55;;;;;;;33.35;7.78;;;;;;;;;;4383467;32;20042;-69
2022/05/26 02:32:41;;;;;;;29.45;8.18;;;;;;;;;;4392203;32;20349;-69
2022/05/26 02:35:09;;;;;;;23.65;5.68;;;;;;;;;;4377678;32;20026;-70
2022/05/26 02:37:35;;;;;;;22.17;5.25;;;;;;;;;;4383960;32;20102;-69
2022/05/26 02:40:00;;;;;;;22.77;5.87;;;;;;;;;;4376831;32;20031;-68
2022/05/26 02:42:27;;;;;;;27.85;5.50;;;;;;;;;;4385759;32;20022;-68
2022/05/26 02:44:52;;;;;;;23.05;6.12;;;;;;;;;;4389203;32;20098;-68
2022/05/26 02:47:23;;;;;;;23.67;5.68;;;;;;;;;;4385659;32;20120;-69
2022/05/26 02:50:01;;;;;;;23.95;6.12;;;;;;;;;;4378904;32;20074;-69
2022/05/26 02:52:42;;;;;;;30.35;5.62;;;;;;;;;;4377737;32;20428;-69
2022/05/26 02:55:16;;;;;;;27.58;5.25;;;;;;;;;;4363914;32;20031;-70
2022/05/26 02:57:50;;;;;;;19.65;4.40;;;;;;;;;;4384206;32;20123;-70
2022/05/26 03:00:24;;;;;;;19.23;4.18;;;;;;;;;;4392137;32;20027;-68
2022/05/26 03:02:50;;;;;;;19.92;4.37;;;;;;;;;;4391250;32;20030;-69
2022/05/26 03:05:18;;;;;;;20.60;4.63;;;;;;;;;;4391343;32;20076;-69
2022/05/26 03:07:45;;;;;;;15.05;4.18;;;;;;;;;;4382669;32;20245;-68
2022/05/26 03:10:11;;;;;;;18.55;4.72;;;;;;;;;;4377431;32;20046;-68
2022/05/26 03:12:36;;;;;;;16.33;4.78;;;;;;;;;;4389617;32;20023;-69
2022/05/26 03:15:03;;;;;;;18.85;4.30;;;;;;;;;;4377850;32;20357;-69
2022/05/26 03:17:28;;;;;;;12.37;3.92;;;;;;;;;;4383617;32;20464;-69
2022/05/26 03:19:53;;;;;;;17.45;3.75;;;;;;;;;;4376497;32;20026;-69
2022/05/26 03:22:19;;;;;;;14.77;4.32;;;;;;;;;;4376133;32;20086;-69
2022/05/26 03:24:44;;;;;;;17.92;3.90;;;;;;;;;;4378808;32;20028;-69
2022/05/26 03:27:09;;;;;;;18.15;4.37;;;;;;;;;;4386818;32;20405;-70
2022/05/26 03:29:35;;;;;;;16.65;4.57;;;;;;;;;;4377967;32;20409;-69
2022/05/26 03:32:00;;;;;;;15.88;4.12;;;;;;;;;;4377171;32;20049;-69
2022/05/26 03:42:38;;;;;;;12.85;4.15;;;;;;;;;;4388400;32;20105;-70
2022/05/26 03:45:03;;;;;;;16.20;3.55;;;;;;;;;;4390074;32;20031;-68
2022/05/26 03:47:28;;;;;;;12.82;4.53;;;;;;;;;;4380753;32;20160;-68
2022/05/26 03:49:53;;;;;;;19.67;4.53;;;;;;;;;;4389752;32;20023;-69
2022/05/26 03:52:18;;;;;;;21.33;5.20;;;;;;;;;;4389444;32;20136;-69
2022/05/26 03:54:44;;;;;;;16.37;3.90;;;;;;;;;;4385422;32;20386;-69
2022/05/26 03:57:09;;;;;;;20.37;4.35;;;;;;;;;;4377466;32;20123;-68
2022/05/26 03:59:39;;;;;;;11.98;3.42;;;;;;;;;;4361904;32;20054;-68
2022/05/26 04:02:04;;;;;;;24.27;4.78;;;;;;;;;;4378311;32;20023;-69
2022/05/26 04:04:29;;;;;;;13.35;4.10;;;;;;;;;;4377044;32;20026;-69
2022/05/26 04:06:54;;;;;;;15.00;4.05;;;;;;;;;;4380096;32;20027;-69
2022/05/26 04:09:19;;;;;;;17.52;3.65;;;;;;;;;;4387915;32;20123;-69
2022/05/26 04:11:45;;;;;;;14.00;3.53;;;;;;;;;;4375800;32;20023;-69
2022/05/26 04:14:10;;;;;;;18.50;4.55;;;;;;;;;;4391948;32;20026;-68
2022/05/26 04:16:35;;;;;;;21.30;4.55;;;;;;;;;;4378993;32;20023;-68
2022/05/26 04:19:00;;;;;;;17.55;3.90;;;;;;;;;;4376424;32;20026;-68
2022/05/26 04:21:26;;;;;;;20.23;5.18;;;;;;;;;;4376311;32;20050;-69
2022/05/26 04:23:51;;;;;;;13.35;3.97;;;;;;;;;;4375744;32;20023;-68
2022/05/26 04:26:16;;;;;;;14.17;4.23;;;;;;;;;;4384743;32;20101;-69
2022/05/26 04:28:41;;;;;;;16.80;4.35;;;;;;;;;;4376285;32;20135;-69
2022/05/26 04:31:06;;;;;;;17.60;3.92;;;;;;;;;;4361787;32;20027;-68
2022/05/26 04:33:32;;;;;;;15.95;4.12;;;;;;;;;;4375275;32;20428;-69
2022/05/26 04:35:57;;;;;;;14.20;3.95;;;;;;;;;;4382357;32;20124;-69
2022/05/26 04:38:23;;;;;;;17.77;4.25;;;;;;;;;;4375512;32;20039;-69
2022/05/26 04:40:58;;;;;;;12.65;3.80;;;;;;;;;;4376183;32;20097;-69
2022/05/26 04:43:23;;;;;;;19.75;5.37;;;;;;;;;;4379217;32;20031;-69
2022/05/26 04:45:48;;;;;;;19.58;5.15;;;;;;;;;;4385714;32;20392;-69
2022/05/26 04:48:16;;;;;;;16.83;4.10;;;;;;;;;;4384664;32;20489;-69
2022/05/26 04:50:42;;;;;;;25.60;6.07;;;;;;;;;;4389590;32;20140;-69
2022/05/26 04:53:08;;;;;;;17.08;4.10;;;;;;;;;;4389806;32;20065;-69
2022/05/26 04:55:33;;;;;;;15.27;4.53;;;;;;;;;;4382648;32;20095;-69
2022/05/26 04:57:58;;;;;;;15.55;4.22;;;;;;;;;;4374355;32;20085;-69
2022/05/26 05:00:23;;;;;;;16.40;3.72;;;;;;;;;;4377097;32;20094;-68
2022/05/26 05:02:49;;;;;;;15.38;4.47;;;;;;;;;;4381519;32;20142;-69
2022/05/26 05:05:14;;;;;;;17.15;3.60;;;;;;;;;;4373482;32;20061;-70
2022/05/26 05:07:39;;;;;;;21.05;4.20;;;;;;;;;;4375907;32;20028;-69
2022/05/26 05:10:04;;;;;;;15.32;3.35;;;;;;;;;;4375084;32;20092;-69
2022/05/26 05:12:30;;;;;;;15.40;3.67;;;;;;;;;;4376410;32;20028;-69
2022/05/26 05:14:55;;;;;;;13.13;3.42;;;;;;;;;;4385451;32;20031;-68
2022/05/26 05:17:22;;;;;;;21.55;4.82;;;;;;;;;;4376605;32;20061;-69
2022/05/26 05:19:47;;;;;;;20.25;5.07;;;;;;;;;;4383770;32;20094;-68
2022/05/26 05:22:19;;;;;;;20.27;3.95;;;;;;;;;;4376421;32;20023;-67
2022/05/26 05:24:49;;;;;;;19.52;5.05;;;;;;;;;;4389913;32;20081;-68
2022/05/26 05:27:19;;;;;;;12.73;3.55;;;;;;;;;;4384580;32;20053;-68
2022/05/26 05:29:44;;;;;;;16.30;4.25;;;;;;;;;;4383589;32;20019;-68
2022/05/26 05:32:16;;;;;;;15.32;4.40;;;;;;;;;;4381463;32;20022;-68
2022/05/26 05:34:43;;;;;;;11.77;3.92;;;;;;;;;;4379959;32;20412;-68
2022/05/26 05:37:08;;;;;;;17.05;4.35;;;;;;;;;;4375969;32;20429;-67
2022/05/26 05:39:34;;;;;;;12.50;4.03;;;;;;;;;;4374451;32;20074;-68
2022/05/26 05:41:59;;;;;;;17.58;4.20;;;;;;;;;;4375908;32;20428;-69
2022/05/26 05:44:25;;;;;;;16.67;4.27;;;;;;;;;;4376310;32;20054;-67
2022/05/26 05:46:54;;;;;;;16.23;3.60;;;;;;;;;;4376300;32;20192;-67
2022/05/26 05:49:20;;;;;;;13.45;3.75;;;;;;;;;;4376039;32;20039;-68
2022/05/26 05:51:45;;;;;;;16.83;4.57;;;;;;;;;;4377346;32;20532;-68
2022/05/26 05:54:10;;;;;;;16.27;3.62;;;;;;;;;;4378543;32;20027;-68
2022/05/26 05:56:35;;;;;;;13.90;3.87;;;;;;;;;;4383369;32;20077;-67
2022/05/26 05:59:00;;;;;;;17.20;4.57;;;;;;;;;;4393692;32;20035;-67
2022/05/26 06:01:25;;;;;;;19.98;4.43;;;;;;;;;;4393895;32;20147;-68
2022/05/26 06:03:51;;;;;;;22.13;4.20;;;;;;;;;;4390770;32;20018;-69
2022/05/26 06:06:17;;;;;;;19.75;4.40;;;;;;;;;;4381647;32;20103;-70
2022/05/26 06:08:42;;;;;;;15.85;3.85;;;;;;;;;;4388077;32;20081;-70
2022/05/26 06:11:07;;;;;;;12.27;3.95;;;;;;;;;;4377704;32;20388;-70
2022/05/26 06:13:33;;;;;;;12.93;3.60;;;;;;;;;;4378674;32;20027;-70
2022/05/26 06:15:59;;;;;;;17.50;4.07;;;;;;;;;;4379073;32;20050;-70
2022/05/26 06:18:24;;;;;;;19.98;3.92;;;;;;;;;;4389910;32;20031;-70
2022/05/26 06:20:50;;;;;;;8.50;3.05;;;;;;;;;;4390977;32;20046;-70
2022/05/26 06:23:17;;;;;;;20.90;4.47;;;;;;;;;;4391605;32;20086;-70
2022/05/26 06:25:42;;;;;;;10.05;3.12;;;;;;;;;;4391920;32;20190;-71
2022/05/26 06:30:52;;;;;;;14.75;4.03;;;;;;;;;;4375687;32;20131;-69
2022/05/26 06:38:46;;;;;;;13.77;3.42;;;;;;;;;;4377026;32;20460;-69
2022/05/26 06:43:57;;;;;;;13.40;4.32;;;;;;;;;;4377738;32;20089;-70
2022/05/26 06:46:23;;;;;;;12.77;3.50;;;;;;;;;;4375433;32;20376;-69
2022/05/26 06:48:48;;;;;;;15.13;3.67;;;;;;;;;;4377227;32;20158;-69
2022/05/26 06:51:13;;;;;;;12.80;3.12;;;;;;;;;;4377306;32;20318;-70
2022/05/26 06:53:39;;;;;;;8.60;3.10;;;;;;;;;;4376707;32;20122;-70
2022/05/26 06:56:07;;;;;;;10.20;2.90;;;;;;;;;;4364000;32;20361;-70
2022/05/26 06:58:33;;;;;;;18.00;4.43;;;;;;;;;;4377906;32;20058;-70
2022/05/26 07:00:58;;;;;;;18.17;6.43;;;;;;;;;;4376249;32;20019;-69
2022/05/26 07:03:23;;;;;;;12.05;3.58;;;;;;;;;;4362982;32;20367;-69
2022/05/26 07:05:50;;;;;;;12.60;4.07;;;;;;;;;;4376361;32;20018;-69
2022/05/26 07:08:15;;;;;;;17.60;4.20;;;;;;;;;;4377732;32;20398;-70
2022/05/26 07:10:40;;;;;;;13.00;3.70;;;;;;;;;;4377254;32;20042;-69
2022/05/26 07:13:06;;;;;;;8.35;3.42;;;;;;;;;;4375602;32;20027;-70
2022/05/26 07:15:33;;;;;;;9.68;3.08;;;;;;;;;;4376278;32;20117;-70
2022/05/26 07:17:58;;;;;;;16.52;5.57;;;;;;;;;;4377500;32;20062;-70
2022/05/26 07:20:23;;;;;;;14.30;4.03;;;;;;;;;;4377648;32;20053;-70
2022/05/26 07:22:48;;;;;;;7.18;2.62;;;;;;;;;;4376409;32;20047;-70
2022/05/26 07:25:14;;;;;;;8.43;2.95;;;;;;;;;;4374391;32;20440;-70
2022/05/26 07:27:39;;;;;;;14.60;3.25;;;;;;;;;;4388489;32;20157;-69
2022/05/26 07:30:04;;;;;;;9.40;3.28;;;;;;;;;;4390991;32;20057;-69
2022/05/26 07:32:30;;;;;;;11.45;3.95;;;;;;;;;;4390461;32;20110;-70
2022/05/26 07:34:55;;;;;;;13.93;4.85;;;;;;;;;;4391715;32;20122;-69
2022/05/26 07:42:48;;;;;;;13.90;3.15;;;;;;;;;;4392494;32;20119;-70
2022/05/26 07:45:14;;;;;;;9.30;3.00;;;;;;;;;;4391560;32;20027;-70
2022/05/26 07:47:39;;;;;;;14.32;2.75;;;;;;;;;;4392343;32;20055;-70
2022/05/26 07:50:05;;;;;;;12.75;3.65;;;;;;;;;;4391055;32;20022;-70
2022/05/26 07:52:30;;;;;;;13.00;2.90;;;;;;;;;;4390902;32;20046;-70
2022/05/26 07:54:55;;;;;;;16.13;3.00;;;;;;;;;;4392628;32;20094;-70
2022/05/26 07:57:25;;;;;;;11.47;3.00;;;;;;;;;;4380788;32;20464;-72
2022/05/26 07:59:51;;;;;;;8.90;2.42;;;;;;;;;;4375529;32;20131;-69
2022/05/26 08:02:17;;;;;;;13.65;4.18;;;;;;;;;;4392379;32;20053;-69
2022/05/26 08:04:42;;;;;;;11.18;3.28;;;;;;;;;;4391028;32;20026;-70
2022/05/26 08:07:08;;;;;;;11.18;3.50;;;;;;;;;;4376870;32;20073;-72
2022/05/26 08:09:35;;;;;;;13.10;3.83;;;;;;;;;;4392397;32;20046;-69
2022/05/26 08:12:00;;;;;;;13.23;3.42;;;;;;;;;;4390637;32;20043;-69
2022/05/26 08:14:25;;;;;;;11.48;3.50;;;;;;;;;;4390754;32;20474;-70
2022/05/26 08:16:50;;;;;;;8.52;3.33;;;;;;;;;;4391570;32;20023;-70
2022/05/26 08:19:16;;;;;;;11.85;3.47;;;;;;;;;;4391230;32;20031;-70
2022/05/26 08:21:42;;;;;;;10.93;2.80;;;;;;;;;;4389219;32;20129;-70
2022/05/26 08:24:07;;;;;;;15.25;3.30;;;;;;;;;;4391516;32;20392;-71
2022/05/26 08:26:33;;;;;;;22.08;3.75;;;;;;;;;;4368855;32;20031;-71
2022/05/26 08:28:58;;;;;;;11.65;2.72;;;;;;;;;;4376989;32;20495;-70
2022/05/26 08:31:23;;;;;;;11.50;3.00;;;;;;;;;;4375254;32;20455;-70
2022/05/26 08:33:49;;;;;;;8.45;3.17;;;;;;;;;;4376015;32;20127;-69
2022/05/26 08:36:17;;;;;;;12.77;3.33;;;;;;;;;;4375532;32;20022;-69
2022/05/26 08:38:44;;;;;;;11.43;2.85;;;;;;;;;;4374758;32;20109;-70
2022/05/26 08:41:12;;;;;;;12.18;3.10;;;;;;;;;;4361503;32;20334;-70
2022/05/26 08:43:43;;;;;;;14.15;3.25;;;;;;;;;;4375838;32;20088;-70
2022/05/26 08:46:09;;;;;;;11.80;3.05;;;;;;;;;;4375384;32;20077;-69
2022/05/26 08:48:48;;;;;;;11.18;3.37;;;;;;;;;;4375482;32;20112;-69
2022/05/26 08:51:18;;;;;;;9.10;2.30;;;;;;;;;;4375914;32;20102;-70
2022/05/26 08:53:44;;;;;;;11.00;2.60;;;;;;;;;;4376308;32;20026;-70
2022/05/26 08:56:11;;;;;;;6.90;2.10;;;;;;;;;;4380691;32;20027;-70
2022/05/26 08:58:43;;;;;;;7.35;2.30;;;;;;;;;;4391216;32;20061;-69
2022/05/26 09:01:10;;;;;;;8.60;2.50;;;;;;;;;;4389047;32;20107;-70
2022/05/26 09:03:35;;;;;;;13.10;3.35;;;;;;;;;;4391081;32;20400;-71
2022/05/26 09:06:05;;;;;;;11.10;2.58;;;;;;;;;;4390232;32;20086;-71
2022/05/26 09:14:05;;;;;;;9.05;2.58;;;;;;;;;;4390624;32;20080;-69
2022/05/26 09:16:42;;;;;;;6.80;3.00;;;;;;;;;;4390469;32;20045;-69
2022/05/26 09:19:12;;;;;;;10.68;2.70;;;;;;;;;;4390559;32;20026;-68
2022/05/26 09:21:37;;;;;;;11.25;3.12;;;;;;;;;;4391405;32;20026;-68
2022/05/26 09:24:25;;;;;;;9.57;2.90;;;;;;;;;;4390138;32;20022;-71
2022/05/26 09:26:53;;;;;;;10.93;3.22;;;;;;;;;;4392615;32;20038;-69
2022/05/26 09:29:22;;;;;;;9.68;2.78;;;;;;;;;;4393458;32;20119;-68
2022/05/26 09:31:49;;;;;;;10.52;2.58;;;;;;;;;;4392613;32;20413;-70
2022/05/26 09:34:14;;;;;;;15.18;2.58;;;;;;;;;;4392895;32;20031;-69
2022/05/26 09:36:53;;;;;;;7.70;3.00;;;;;;;;;;4392264;32;20030;-69
2022/05/26 09:39:20;;;;;;;8.50;2.53;;;;;;;;;;4378408;32;20039;-69
2022/05/26 09:41:50;;;;;;;11.45;2.72;;;;;;;;;;4392913;32;20027;-69
2022/05/26 09:44:23;;;;;;;10.48;2.20;;;;;;;;;;4392180;32;20027;-70
2022/05/26 09:46:51;;;;;;;9.98;2.67;;;;;;;;;;4392012;32;20138;-70
2022/05/26 09:49:17;;;;;;;11.35;2.85;;;;;;;;;;4393863;32;20105;-70
2022/05/26 09:51:44;;;;;;;11.20;3.25;;;;;;;;;;4378159;32;20019;-70
2022/05/26 09:54:25;;;;;;;11.77;3.00;;;;;;;;;;4392145;32;20380;-71
2022/05/26 09:56:51;;;;;;;9.18;2.85;;;;;;;;;;4392016;32;20102;-71
2022/05/26 09:59:29;;;;;;;10.88;2.60;;;;;;;;;;4391550;32;20391;-70
2022/05/26 10:02:07;;;;;;;15.40;4.12;;;;;;;;;;4392226;32;20061;-70
2022/05/26 10:04:53;;;;;;;11.35;3.42;;;;;;;;;;4393218;32;20026;-70
2022/05/26 10:07:38;;;;;;;12.43;3.08;;;;;;;;;;4374237;32;20154;-70
2022/05/26 10:10:19;;;;;;;10.93;2.50;;;;;;;;;;4363227;32;20447;-71
2022/05/26 10:12:50;;;;;;;11.32;2.80;;;;;;;;;;4363305;32;20089;-70
2022/05/26 10:15:22;;;;;;;13.32;2.83;;;;;;;;;;4362959;32;20043;-70
2022/05/26 10:18:22;;;;;;;7.85;2.53;;;;;;;;;;4361705;32;20039;-70
2022/05/26 10:21:00;;;;;;;11.10;2.37;;;;;;;;;;4315864;33;20052;-70
2022/05/26 10:23:25;;;;;;;12.80;3.10;;;;;;;;;;4355749;32;20031;-69
2022/05/26 10:25:53;;;;;;;8.55;2.42;;;;;;;;;;4369948;32;20107;-71
2022/05/26 10:28:21;;;;;;;7.55;2.25;;;;;;;;;;4381614;32;20507;-69
2022/05/26 10:30:55;;;;;;;10.45;2.80;;;;;;;;;;4376699;32;20060;-70
2022/05/26 10:33:25;;;;;;;10.52;2.70;;;;;;;;;;4377328;32;20098;-70
2022/05/26 10:35:57;;;;;;;10.13;2.20;;;;;;;;;;4376491;32;20053;-70
2022/05/26 10:38:22;;;;;;;9.13;2.28;;;;;;;;;;4362425;32;20035;-70
2022/05/26 10:40:47;;;;;;;8.77;2.77;;;;;;;;;;4377028;32;20054;-70
2022/05/26 10:43:12;;;;;;;8.70;2.47;;;;;;;;;;4376368;32;20407;-70
2022/05/26 10:45:38;;;;;;;13.75;2.47;;;;;;;;;;4362482;32;20530;-70
2022/05/26 10:48:07;;;;;;;9.18;2.30;;;;;;;;;;4376150;32;20463;-71
2022/05/26 10:50:41;;;;;;;9.65;2.95;;;;;;;;;;4362744;32;20019;-70
2022/05/26 10:53:15;;;;;;;9.85;2.40;;;;;;;;;;4362947;32;20334;-69
2022/05/26 10:55:54;;;;;;;13.57;2.80;;;;;;;;;;4376110;32;20050;-69
2022/05/26 10:58:19;;;;;;;8.85;2.00;;;;;;;;;;4363052;32;20098;-70
2022/05/26 11:00:49;;;;;;;10.93;2.00;;;;;;;;;;4362540;32;20050;-69
2022/05/26 11:03:19;;;;;;;11.20;1.98;;;;;;;;;;4376460;32;20431;-70
2022/05/26 11:05:44;;;;;;;11.27;2.20;;;;;;;;;;4362727;32;20019;-69
2022/05/26 11:08:28;;;;;;;11.43;2.25;;;;;;;;;;4376058;32;20019;-69
2022/05/26 11:10:56;;;;;;;7.75;1.90;;;;;;;;;;4362328;32;20340;-69
2022/05/26 11:13:23;;;;;;;9.25;2.05;;;;;;;;;;4363880;32;20401;-70
2022/05/26 11:18:51;;;;;;;11.52;2.80;;;;;;;;;;4375341;32;20340;-70
2022/05/26 11:21:20;;;;;;;10.63;3.10;;;;;;;;;;4366398;32;20035;-70
2022/05/26 11:23:45;;;;;;;6.47;2.28;;;;;;;;;;4361940;32;20040;-71
2022/05/26 11:26:14;;;;;;;8.05;2.15;;;;;;;;;;4368710;32;20101;-69
2022/05/26 11:28:51;;;;;;;9.25;2.33;;;;;;;;;;4376713;32;20082;-69
2022/05/26 11:37:01;;;;;;;11.70;2.90;;;;;;;;;;4361059;32;20142;-70
2022/05/26 11:39:35;;;;;;;7.75;2.92;;;;;;;;;;4360819;32;20097;-70
2022/05/26 11:42:24;;;;;;;10.75;2.72;;;;;;;;;;4346908;33;20443;-71
2022/05/26 11:45:08;;;;;;;9.15;2.30;;;;;;;;;;4341274;33;20031;-70
2022/05/26 11:47:51;;;;;;;4.40;1.95;;;;;;;;;;4360914;32;20027;-71
2022/05/26 11:50:35;;;;;;;8.52;2.10;;;;;;;;;;4360562;32;20024;-70
2022/05/26 11:53:02;;;;;;;7.87;1.90;;;;;;;;;;4360945;32;20409;-71
2022/05/26 11:55:45;;;;;;;7.68;2.40;;;;;;;;;;4350932;32;20138;-70
2022/05/26 11:58:25;;;;;;;7.65;1.98;;;;;;;;;;4376799;32;20027;-70
2022/05/26 12:01:08;;;;;;;12.70;2.10;;;;;;;;;;4392005;32;20069;-70
2022/05/26 12:03:47;;;;;;;10.35;2.17;;;;;;;;;;4392049;32;20083;-71
2022/05/26 12:06:13;;;;;;;12.65;2.55;;;;;;;;;;4391218;32;20434;-71
2022/05/26 12:08:41;;;;;;;6.60;2.10;;;;;;;;;;4390208;32;20054;-70
2022/05/26 12:11:09;;;;;;;9.70;2.53;;;;;;;;;;4390806;32;20223;-71
2022/05/26 12:13:35;;;;;;;8.73;2.50;;;;;;;;;;4376544;32;20080;-70
2022/05/26 12:16:06;;;;;;;4.95;1.98;;;;;;;;;;4391514;32;20071;-69
2022/05/26 12:18:39;;;;;;;9.20;2.33;;;;;;;;;;4390657;32;20349;-69
2022/05/26 12:21:15;;;;;;;6.72;1.95;;;;;;;;;;4389996;32;20421;-69
2022/05/26 12:23:42;;;;;;;8.85;2.05;;;;;;;;;;4390406;32;20106;-69
2022/05/26 12:26:27;;;;;;;5.35;1.98;;;;;;;;;;4389525;32;20027;-69
2022/05/26 12:28:52;;;;;;;8.38;2.83;;;;;;;;;;4376495;32;20023;-69
2022/05/26 12:31:18;;;;;;;7.72;2.10;;;;;;;;;;4377767;32;20404;-69
2022/05/26 12:33:47;;;;;;;6.97;2.55;;;;;;;;;;4391029;32;20049;-69
2022/05/26 12:36:31;;;;;;;7.12;2.12;;;;;;;;;;4376875;32;20200;-70
2022/05/26 12:39:02;;;;;;;9.18;2.05;;;;;;;;;;4375324;32;20429;-70
2022/05/26 12:41:28;;;;;;;6.05;1.85;;;;;;;;;;4390704;32;20049;-70
2022/05/26 12:44:12;;;;;;;11.90;2.00;;;;;;;;;;4390215;32;20102;-70
2022/05/26 12:46:50;;;;;;;6.87;1.90;;;;;;;;;;4389860;32;20139;-70
2022/05/26 12:49:21;;;;;;;6.28;1.77;;;;;;;;;;4389911;32;20031;-70
2022/05/26 12:51:56;;;;;;;7.30;1.80;;;;;;;;;;4390282;32;20080;-70
2022/05/26 12:54:22;;;;;;;10.63;2.08;;;;;;;;;;4390207;32;20030;-70
2022/05/26 12:56:58;;;;;;;8.25;2.33;;;;;;;;;;4387229;32;20061;-70
2022/05/26 12:59:27;;;;;;;7.72;1.50;;;;;;;;;;4387657;32;20039;-70
2022/05/26 13:01:52;;;;;;;6.87;2.00;;;;;;;;;;4389669;32;20030;-70
2022/05/26 13:04:20;;;;;;;6.18;1.65;;;;;;;;;;4388623;32;20088;-70
2022/05/26 13:06:47;;;;;;;9.93;1.70;;;;;;;;;;4376044;32;20061;-70
2022/05/26 13:09:18;;;;;;;5.78;1.80;;;;;;;;;;4390855;32;20031;-70
2022/05/26 13:11:55;;;;;;;4.62;1.73;;;;;;;;;;4390528;32;20030;-70
2022/05/26 13:14:28;;;;;;;6.45;1.80;;;;;;;;;;4375796;32;20337;-70
2022/05/26 13:16:57;;;;;;;6.20;1.70;;;;;;;;;;4390915;32;20044;-69
2022/05/26 13:19:22;;;;;;;7.78;2.33;;;;;;;;;;4376884;32;20069;-70
2022/05/26 13:21:49;;;;;;;13.85;2.12;;;;;;;;;;4390073;32;20130;-71
2022/05/26 13:24:19;;;;;;;6.37;2.40;;;;;;;;;;4377046;32;20030;-70
2022/05/26 13:26:45;;;;;;;7.40;2.20;;;;;;;;;;4377204;32;20057;-71
2022/05/26 13:29:11;;;;;;;10.20;2.17;;;;;;;;;;4374046;32;20027;-70
2022/05/26 13:34:25;;;;;;;6.55;2.25;;;;;;;;;;4382424;32;20084;-69
2022/05/26 13:36:50;;;;;;;12.48;2.78;;;;;;;;;;4388838;32;20428;-70
2022/05/26 13:39:20;;;;;;;9.38;2.12;;;;;;;;;;4389872;32;20034;-70
2022/05/26 13:41:46;;;;;;;7.62;2.28;;;;;;;;;;4391231;32;20068;-70
2022/05/26 13:44:15;;;;;;;8.85;2.30;;;;;;;;;;4391539;32;20035;-70
2022/05/26 13:46:43;;;;;;;7.97;2.03;;;;;;;;;;4389616;32;20388;-70
2022/05/26 13:49:29;;;;;;;9.43;2.30;;;;;;;;;;4390955;32;20389;-70
2022/05/26 13:51:55;;;;;;;7.03;1.90;;;;;;;;;;4390548;32;20364;-69
2022/05/26 13:54:26;;;;;;;11.45;2.00;;;;;;;;;;4375005;32;20409;-70
2022/05/26 13:56:51;;;;;;;13.25;2.53;;;;;;;;;;4350245;32;20031;-71
2022/05/26 13:59:17;;;;;;;6.57;2.03;;;;;;;;;;4373004;32;20061;-69
2022/05/26 14:01:52;;;;;;;10.32;3.55;;;;;;;;;;4373948;32;20061;-70
2022/05/26 14:04:37;;;;;;;9.65;2.72;;;;;;;;;;4375786;32;20035;-70
2022/05/26 14:07:22;;;;;;;8.55;2.50;;;;;;;;;;4360657;32;20405;-72
2022/05/26 14:09:58;;;;;;;6.55;1.87;;;;;;;;;;4361698;32;20023;-70
2022/05/26 14:12:23;;;;;;;;;;;;;;;;;;4378623;32;20031;-70
2022/05/26 14:14:48;;;;;;;5.90;1.60;;;;;;;;;;4364130;32;20356;-71
2022/05/26 14:17:43;;;;;;;7.47;2.10;;;;;;;;;;4376669;32;20058;-69
2022/05/26 14:20:25;;;;;;;4.07;1.55;;;;;;;;;;4353446;32;20204;-71
2022/05/26 14:22:52;;;;;;;7.72;1.50;;;;;;;;;;4375378;32;20150;-71
2022/05/26 14:25:19;;;;;;;4.07;1.60;;;;;;;;;;4380881;32;20478;-71
2022/05/26 14:27:56;;;;;;;6.80;1.60;;;;;;;;;;4392620;32;20088;-71
2022/05/26 14:30:37;;;;;;;5.95;1.92;;;;;;;;;;4391542;32;20046;-71
2022/05/26 14:33:18;;;;;;;4.97;1.42;;;;;;;;;;4392150;32;20071;-70
2022/05/26 14:35:43;;;;;;;4.20;1.20;;;;;;;;;;4391886;32;20052;-71
2022/05/26 14:38:08;;;;;;;5.75;1.58;;;;;;;;;;4391773;32;20094;-71
2022/05/26 14:40:33;;;;;;;6.22;1.73;;;;;;;;;;4393327;32;20053;-71
2022/05/26 14:42:59;;;;;;;4.40;1.37;;;;;;;;;;4391585;32;20114;-70
2022/05/26 14:45:24;;;;;;;4.30;1.85;;;;;;;;;;4391594;32;20540;-71
2022/05/26 14:47:49;;;;;;;5.12;1.55;;;;;;;;;;4378794;32;20098;-70
2022/05/26 14:50:15;;;;;;;4.72;1.58;;;;;;;;;;4392041;32;20094;-71
2022/05/26 14:52:41;;;;;;;3.97;1.45;;;;;;;;;;4392845;32;20125;-70
2022/05/26 14:55:27;;;;;;;6.35;1.70;;;;;;;;;;4371817;32;20405;-72
2022/05/26 14:57:53;;;;;;;8.45;2.72;;;;;;;;;;4363879;32;20059;-71
2022/05/26 15:00:20;;;;;;;4.68;1.73;;;;;;;;;;4377581;32;20104;-71
2022/05/26 15:02:45;;;;;;;7.12;1.90;;;;;;;;;;4362720;32;20049;-71
2022/05/26 15:05:11;;;;;;;8.00;2.12;;;;;;;;;;4359192;32;20044;-70
2022/05/26 15:07:37;;;;;;;11.07;2.28;;;;;;;;;;4360777;32;20031;-71
2022/05/26 15:10:04;;;;;;;12.90;2.85;;;;;;;;;;4361456;32;20090;-71
2022/05/26 15:12:29;;;;;;;11.02;2.15;;;;;;;;;;4362279;32;20067;-71
2022/05/26 15:14:54;;;;;;;10.20;3.13;;;;;;;;;;4359069;33;20158;-71
2022/05/26 15:17:21;;;;;;;13.27;3.77;;;;;;;;;;4361610;33;20124;-71
2022/05/26 15:19:50;;;;;;;9.07;2.60;;;;;;;;;;4362914;32;20209;-70
2022/05/26 15:22:17;;;;;;;15.05;4.93;;;;;;;;;;4361789;32;20122;-70
2022/05/26 15:24:43;;;;;;;9.85;2.60;;;;;;;;;;4361711;32;20047;-70